RAM995 LPPR-GMMN
Flight info
| Callsign | RAM995 |
|---|---|
| Flight time | 1h 28m |
| Altitude | 35000 |
| Route | MANIK DCT FTM DCT MAGUM DCT SOTEX DCT VFA DCT GIMAL DCT AMSEL UR722 LAKAM |
| Aircraft | B738/M-SDE2E3FGHIRWXY/LB1 |
Departure
| Time | 2026-05-07 15:45 |
|---|---|
| Airport | Francisco de Sá Carneiro Airport (LPPR) |
Arrival
| Time | 2026-05-07 17:13 |
|---|---|
| Airport | Mohammed V International Airport (GMMN) |
| Time | Latitude | Longitude | Altitude | Speed | Heading |
|---|---|---|---|---|---|
| 2026-05-07 15:22 | 41.24023 | -8.67628 | 219 ft | 0 kts | 259° |
| 2026-05-07 15:37 | 41.24024 | -8.67625 | 218 ft | 2 kts | 259° |
| 2026-05-07 15:38 | 41.24027 | -8.67606 | 219 ft | 2 kts | 259° |
| 2026-05-07 15:38 | 41.24030 | -8.67586 | 221 ft | 2 kts | 259° |
| 2026-05-07 15:38 | 41.24032 | -8.67571 | 222 ft | 0 kts | 259° |
| 2026-05-07 15:38 | 41.24036 | -8.67554 | 222 ft | 2 kts | 233° |
| 2026-05-07 15:39 | 41.24047 | -8.67541 | 223 ft | 2 kts | 205° |
| 2026-05-07 15:39 | 41.24061 | -8.67536 | 224 ft | 1 kts | 176° |
| 2026-05-07 15:39 | 41.24068 | -8.67538 | 224 ft | 1 kts | 165° |
| 2026-05-07 15:39 | 41.24071 | -8.67539 | 223 ft | 0 kts | 168° |
| 2026-05-07 15:41 | 41.24069 | -8.67538 | 223 ft | 1 kts | 168° |
| 2026-05-07 15:41 | 41.24036 | -8.67530 | 224 ft | 7 kts | 170° |
| 2026-05-07 15:42 | 41.23950 | -8.67509 | 225 ft | 16 kts | 168° |
| 2026-05-07 15:42 | 41.23822 | -8.67475 | 227 ft | 19 kts | 168° |
| 2026-05-07 15:42 | 41.23683 | -8.67439 | 231 ft | 20 kts | 168° |
| 2026-05-07 15:42 | 41.23542 | -8.67401 | 235 ft | 21 kts | 168° |
| 2026-05-07 15:43 | 41.23407 | -8.67367 | 237 ft | 16 kts | 169° |
| 2026-05-07 15:43 | 41.23334 | -8.67423 | 235 ft | 10 kts | 250° |
| 2026-05-07 15:43 | 41.23316 | -8.67539 | 231 ft | 14 kts | 259° |
| 2026-05-07 15:43 | 41.23309 | -8.67591 | 229 ft | 0 kts | 258° |
| 2026-05-07 15:44 | 41.23302 | -8.67634 | 227 ft | 8 kts | 258° |
| 2026-05-07 15:44 | 41.23322 | -8.67731 | 223 ft | 14 kts | 327° |
| 2026-05-07 15:44 | 41.23436 | -8.67767 | 222 ft | 29 kts | 350° |
| 2026-05-07 15:44 | 41.23909 | -8.67889 | 212 ft | 106 kts | 347° |
| 2026-05-07 15:45 | 41.24839 | -8.68134 | 188 ft | 167 kts | 348° |
| 2026-05-07 15:45 | 41.26064 | -8.68457 | 659 ft | 183 kts | 346° |
| 2026-05-07 15:45 | 41.27300 | -8.68813 | 1434 ft | 187 kts | 343° |
| 2026-05-07 15:45 | 41.28563 | -8.69219 | 2251 ft | 188 kts | 344° |
| 2026-05-07 15:46 | 41.31191 | -8.69853 | 3200 ft | 219 kts | 348° |
| 2026-05-07 15:46 | 41.32801 | -8.70235 | 3636 ft | 243 kts | 346° |
| 2026-05-07 15:46 | 41.34489 | -8.70667 | 4320 ft | 257 kts | 346° |
| 2026-05-07 15:47 | 41.36228 | -8.71117 | 5235 ft | 259 kts | 345° |
| 2026-05-07 15:47 | 41.37865 | -8.71988 | 6131 ft | 258 kts | 320° |
| 2026-05-07 15:47 | 41.38928 | -8.73901 | 6875 ft | 263 kts | 287° |
| 2026-05-07 15:47 | 41.39071 | -8.76270 | 7779 ft | 263 kts | 261° |
| 2026-05-07 15:48 | 41.38662 | -8.78635 | 8590 ft | 267 kts | 249° |
| 2026-05-07 15:48 | 41.37632 | -8.80691 | 9354 ft | 275 kts | 221° |
| 2026-05-07 15:48 | 41.35909 | -8.81732 | 10216 ft | 282 kts | 191° |
| 2026-05-07 15:48 | 41.33878 | -8.81701 | 10525 ft | 309 kts | 175° |
| 2026-05-07 15:49 | 41.31672 | -8.81264 | 10946 ft | 326 kts | 175° |
| 2026-05-07 15:49 | 41.29359 | -8.80834 | 11111 ft | 350 kts | 175° |
| 2026-05-07 15:49 | 41.26950 | -8.80387 | 11907 ft | 351 kts | 175° |
| 2026-05-07 15:49 | 41.24508 | -8.79929 | 12469 ft | 360 kts | 176° |
| 2026-05-07 15:50 | 41.22054 | -8.79395 | 13229 ft | 365 kts | 167° |
| 2026-05-07 15:50 | 41.19694 | -8.78139 | 13913 ft | 372 kts | 158° |
| 2026-05-07 15:50 | 41.17356 | -8.76618 | 14594 ft | 376 kts | 158° |
| 2026-05-07 15:50 | 41.14983 | -8.75090 | 15228 ft | 380 kts | 158° |
| 2026-05-07 15:51 | 41.12632 | -8.73574 | 15859 ft | 383 kts | 158° |
| 2026-05-07 15:51 | 41.10218 | -8.72013 | 16501 ft | 385 kts | 158° |
| 2026-05-07 15:51 | 41.07837 | -8.70481 | 17172 ft | 386 kts | 158° |
| 2026-05-07 15:51 | 41.05393 | -8.68928 | 17782 ft | 388 kts | 158° |
| 2026-05-07 15:52 | 41.02975 | -8.67414 | 18384 ft | 390 kts | 158° |
| 2026-05-07 15:52 | 41.00510 | -8.65896 | 18950 ft | 392 kts | 158° |
| 2026-05-07 15:52 | 40.98035 | -8.64400 | 19483 ft | 395 kts | 158° |
| 2026-05-07 15:52 | 40.95511 | -8.62905 | 20005 ft | 398 kts | 158° |
| 2026-05-07 15:53 | 40.92923 | -8.61705 | 20453 ft | 399 kts | 170° |
| 2026-05-07 15:53 | 40.90185 | -8.61279 | 20993 ft | 399 kts | 177° |
| 2026-05-07 15:53 | 40.87390 | -8.61019 | 21454 ft | 402 kts | 176° |
| 2026-05-07 15:53 | 40.84623 | -8.60682 | 21908 ft | 405 kts | 175° |
| 2026-05-07 15:54 | 40.81825 | -8.60299 | 22353 ft | 408 kts | 175° |
| 2026-05-07 15:54 | 40.78965 | -8.59890 | 22796 ft | 410 kts | 175° |
| 2026-05-07 15:54 | 40.76139 | -8.59474 | 23222 ft | 413 kts | 175° |
| 2026-05-07 15:54 | 40.73289 | -8.59045 | 23628 ft | 416 kts | 174° |
| 2026-05-07 15:55 | 40.70416 | -8.58605 | 24039 ft | 418 kts | 174° |
| 2026-05-07 15:55 | 40.67504 | -8.58156 | 24423 ft | 420 kts | 174° |
| 2026-05-07 15:55 | 40.64620 | -8.57707 | 24805 ft | 422 kts | 174° |
| 2026-05-07 15:55 | 40.61717 | -8.57254 | 25181 ft | 425 kts | 174° |
| 2026-05-07 15:56 | 40.58757 | -8.56790 | 25535 ft | 427 kts | 174° |
| 2026-05-07 15:56 | 40.55801 | -8.56325 | 25877 ft | 429 kts | 174° |
| 2026-05-07 15:56 | 40.52838 | -8.55860 | 26225 ft | 431 kts | 174° |
| 2026-05-07 15:56 | 40.49854 | -8.55390 | 26552 ft | 433 kts | 174° |
| 2026-05-07 15:57 | 40.46862 | -8.54920 | 26869 ft | 436 kts | 174° |
| 2026-05-07 15:57 | 40.43863 | -8.54448 | 27186 ft | 437 kts | 174° |
| 2026-05-07 15:57 | 40.40839 | -8.53972 | 27488 ft | 439 kts | 174° |
| 2026-05-07 15:57 | 40.37810 | -8.53496 | 27783 ft | 441 kts | 174° |
| 2026-05-07 15:58 | 40.34771 | -8.53019 | 28064 ft | 443 kts | 174° |
| 2026-05-07 15:58 | 40.31727 | -8.52541 | 28343 ft | 445 kts | 174° |
| 2026-05-07 15:58 | 40.28633 | -8.52056 | 28627 ft | 446 kts | 174° |
| 2026-05-07 15:58 | 40.25572 | -8.51576 | 28864 ft | 449 kts | 174° |
| 2026-05-07 15:59 | 40.22447 | -8.51086 | 29135 ft | 450 kts | 174° |
| 2026-05-07 15:59 | 40.19364 | -8.50604 | 29399 ft | 451 kts | 174° |
| 2026-05-07 15:59 | 40.16262 | -8.50118 | 29668 ft | 452 kts | 174° |
| 2026-05-07 15:59 | 40.13158 | -8.49634 | 29955 ft | 452 kts | 174° |
| 2026-05-07 16:00 | 40.10025 | -8.49144 | 30273 ft | 452 kts | 174° |
| 2026-05-07 16:00 | 40.06931 | -8.48662 | 30549 ft | 452 kts | 174° |
| 2026-05-07 16:00 | 40.03796 | -8.48174 | 30860 ft | 451 kts | 174° |
| 2026-05-07 16:00 | 40.00699 | -8.47691 | 31168 ft | 451 kts | 174° |
| 2026-05-07 16:01 | 39.97619 | -8.47212 | 31465 ft | 450 kts | 174° |
| 2026-05-07 16:01 | 39.94494 | -8.46726 | 31770 ft | 449 kts | 174° |
| 2026-05-07 16:01 | 39.91408 | -8.46247 | 32048 ft | 448 kts | 174° |
| 2026-05-07 16:01 | 39.88322 | -8.45769 | 32336 ft | 448 kts | 174° |
| 2026-05-07 16:02 | 39.85219 | -8.45289 | 32618 ft | 447 kts | 174° |
| 2026-05-07 16:02 | 39.82139 | -8.44815 | 32908 ft | 446 kts | 174° |
| 2026-05-07 16:02 | 39.79080 | -8.44343 | 33176 ft | 446 kts | 174° |
| 2026-05-07 16:02 | 39.76003 | -8.43865 | 33456 ft | 445 kts | 174° |
| 2026-05-07 16:03 | 39.72966 | -8.43393 | 33718 ft | 444 kts | 174° |
| 2026-05-07 16:03 | 39.69909 | -8.42920 | 34013 ft | 442 kts | 174° |
| 2026-05-07 16:03 | 39.66859 | -8.42447 | 34238 ft | 442 kts | 174° |
| 2026-05-07 16:03 | 39.63801 | -8.41976 | 34482 ft | 442 kts | 175° |
| 2026-05-07 16:04 | 39.60755 | -8.41508 | 34730 ft | 441 kts | 175° |
| 2026-05-07 16:04 | 39.57733 | -8.41045 | 34900 ft | 442 kts | 175° |
| 2026-05-07 16:04 | 39.54662 | -8.40575 | 34913 ft | 440 kts | 175° |
| 2026-05-07 16:05 | 39.48647 | -8.39656 | 34911 ft | 434 kts | 175° |
| 2026-05-07 16:05 | 39.42653 | -8.38738 | 34914 ft | 435 kts | 175° |
| 2026-05-07 16:06 | 39.36657 | -8.37827 | 34912 ft | 436 kts | 175° |
| 2026-05-07 16:06 | 39.30660 | -8.36910 | 34912 ft | 436 kts | 175° |
| 2026-05-07 16:07 | 39.24641 | -8.35995 | 34954 ft | 434 kts | 174° |
| 2026-05-07 16:07 | 39.18653 | -8.35085 | 34966 ft | 435 kts | 175° |
| 2026-05-07 16:08 | 39.12654 | -8.34176 | 34966 ft | 436 kts | 175° |
| 2026-05-07 16:08 | 39.06612 | -8.33261 | 34965 ft | 435 kts | 175° |
| 2026-05-07 16:09 | 39.00620 | -8.32364 | 34967 ft | 432 kts | 175° |
| 2026-05-07 16:09 | 38.94735 | -8.31540 | 34964 ft | 425 kts | 173° |
| 2026-05-07 16:10 | 38.88795 | -8.30768 | 34966 ft | 432 kts | 172° |
| 2026-05-07 16:10 | 38.82754 | -8.29921 | 34969 ft | 441 kts | 170° |
| 2026-05-07 16:11 | 38.76696 | -8.28930 | 34964 ft | 442 kts | 170° |
| 2026-05-07 16:11 | 38.70621 | -8.27941 | 34964 ft | 439 kts | 170° |
| 2026-05-07 16:12 | 38.64584 | -8.26998 | 34966 ft | 439 kts | 170° |
| 2026-05-07 16:12 | 38.58496 | -8.26068 | 34966 ft | 441 kts | 170° |
| 2026-05-07 16:13 | 38.52410 | -8.25151 | 34965 ft | 441 kts | 171° |
| 2026-05-07 16:13 | 38.46334 | -8.24246 | 34965 ft | 439 kts | 171° |
| 2026-05-07 16:14 | 38.40299 | -8.23352 | 34965 ft | 439 kts | 171° |
| 2026-05-07 16:14 | 38.34221 | -8.22448 | 34967 ft | 441 kts | 171° |
| 2026-05-07 16:15 | 38.28169 | -8.21549 | 34965 ft | 441 kts | 171° |
| 2026-05-07 16:15 | 38.22057 | -8.20647 | 34966 ft | 440 kts | 171° |
| 2026-05-07 16:16 | 38.16006 | -8.19760 | 34966 ft | 439 kts | 171° |
| 2026-05-07 16:16 | 38.09948 | -8.18869 | 34966 ft | 441 kts | 171° |
| 2026-05-07 16:17 | 38.03875 | -8.17976 | 34965 ft | 440 kts | 171° |
| 2026-05-07 16:17 | 37.97796 | -8.17085 | 34965 ft | 438 kts | 171° |
| 2026-05-07 16:18 | 37.91768 | -8.16207 | 34966 ft | 440 kts | 171° |
| 2026-05-07 16:18 | 37.85674 | -8.15313 | 34966 ft | 441 kts | 171° |
| 2026-05-07 16:19 | 37.79577 | -8.14419 | 34965 ft | 440 kts | 170° |
| 2026-05-07 16:19 | 37.73512 | -8.13532 | 34965 ft | 439 kts | 171° |
| 2026-05-07 16:20 | 37.67471 | -8.12650 | 34966 ft | 440 kts | 171° |
| 2026-05-07 16:20 | 37.61379 | -8.11766 | 34965 ft | 440 kts | 171° |
| 2026-05-07 16:21 | 37.55328 | -8.10890 | 34966 ft | 440 kts | 171° |
| 2026-05-07 16:21 | 37.49263 | -8.10009 | 34965 ft | 440 kts | 171° |
| 2026-05-07 16:22 | 37.43181 | -8.09130 | 34934 ft | 440 kts | 171° |
| 2026-05-07 16:22 | 37.37111 | -8.08251 | 34912 ft | 440 kts | 170° |
| 2026-05-07 16:23 | 37.31011 | -8.07368 | 34912 ft | 442 kts | 171° |
| 2026-05-07 16:23 | 37.24952 | -8.06497 | 34910 ft | 440 kts | 171° |
| 2026-05-07 16:24 | 37.18910 | -8.05636 | 34913 ft | 440 kts | 171° |
| 2026-05-07 16:24 | 37.12848 | -8.04768 | 34912 ft | 441 kts | 170° |
| 2026-05-07 16:25 | 37.06777 | -8.03889 | 34911 ft | 440 kts | 171° |
| 2026-05-07 16:25 | 37.00717 | -8.03018 | 34911 ft | 438 kts | 171° |
| 2026-05-07 16:26 | 36.94681 | -8.02155 | 34912 ft | 439 kts | 171° |
| 2026-05-07 16:26 | 36.88602 | -8.01287 | 34912 ft | 440 kts | 171° |
| 2026-05-07 16:27 | 36.82544 | -8.00426 | 34911 ft | 439 kts | 171° |
| 2026-05-07 16:27 | 36.76503 | -7.99569 | 34911 ft | 440 kts | 171° |
| 2026-05-07 16:28 | 36.70443 | -7.98709 | 34911 ft | 438 kts | 171° |
| 2026-05-07 16:28 | 36.64411 | -7.97853 | 34913 ft | 440 kts | 171° |
| 2026-05-07 16:29 | 36.58333 | -7.96993 | 34911 ft | 440 kts | 171° |
| 2026-05-07 16:29 | 36.52313 | -7.96143 | 34912 ft | 439 kts | 171° |
| 2026-05-07 16:30 | 36.46224 | -7.95285 | 34912 ft | 440 kts | 171° |
| 2026-05-07 16:30 | 36.40170 | -7.94433 | 34911 ft | 440 kts | 171° |
| 2026-05-07 16:31 | 36.34121 | -7.93585 | 34912 ft | 440 kts | 171° |
| 2026-05-07 16:31 | 36.28036 | -7.92736 | 34912 ft | 440 kts | 171° |
| 2026-05-07 16:32 | 36.22027 | -7.91895 | 34912 ft | 439 kts | 171° |
| 2026-05-07 16:32 | 36.15957 | -7.91042 | 34912 ft | 440 kts | 171° |
| 2026-05-07 16:33 | 36.09903 | -7.90190 | 34912 ft | 440 kts | 171° |
| 2026-05-07 16:33 | 36.03825 | -7.89343 | 34912 ft | 438 kts | 171° |
| 2026-05-07 16:34 | 35.97798 | -7.88502 | 34913 ft | 439 kts | 171° |
| 2026-05-07 16:34 | 35.91704 | -7.87831 | 34912 ft | 440 kts | 174° |
| 2026-05-07 16:35 | 35.85634 | -7.87317 | 34911 ft | 439 kts | 174° |
| 2026-05-07 16:35 | 35.79535 | -7.86780 | 34912 ft | 440 kts | 173° |
| 2026-05-07 16:36 | 35.73457 | -7.87224 | 34908 ft | 446 kts | 195° |
| 2026-05-07 16:36 | 35.67647 | -7.89917 | 34913 ft | 449 kts | 198° |
| 2026-05-07 16:37 | 35.61839 | -7.92629 | 34911 ft | 447 kts | 198° |
| 2026-05-07 16:37 | 35.56019 | -7.95339 | 34912 ft | 447 kts | 198° |
| 2026-05-07 16:38 | 35.50144 | -7.97706 | 34903 ft | 444 kts | 185° |
| 2026-05-07 16:38 | 35.44034 | -7.97892 | 34913 ft | 440 kts | 173° |
| 2026-05-07 16:38 | 35.41034 | -7.97251 | 34910 ft | 436 kts | 162° |
| 2026-05-07 16:39 | 35.38141 | -7.96167 | 34917 ft | 436 kts | 161° |
| 2026-05-07 16:39 | 35.32320 | -7.94151 | 34912 ft | 438 kts | 163° |
| 2026-05-07 16:40 | 35.26443 | -7.92355 | 34912 ft | 438 kts | 164° |
| 2026-05-07 16:40 | 35.20508 | -7.90622 | 34912 ft | 437 kts | 165° |
| 2026-05-07 16:41 | 35.14526 | -7.89300 | 34912 ft | 440 kts | 171° |
| 2026-05-07 16:41 | 35.08498 | -7.88399 | 34911 ft | 440 kts | 171° |
| 2026-05-07 16:42 | 35.02439 | -7.87431 | 34912 ft | 438 kts | 170° |
| 2026-05-07 16:42 | 34.96497 | -7.86461 | 34916 ft | 425 kts | 171° |
| 2026-05-07 16:43 | 34.90740 | -7.85477 | 34925 ft | 416 kts | 173° |
| 2026-05-07 16:43 | 34.84991 | -7.84482 | 34932 ft | 421 kts | 174° |
| 2026-05-07 16:44 | 34.79179 | -7.83556 | 34930 ft | 423 kts | 175° |
| 2026-05-07 16:44 | 34.73362 | -7.82621 | 34927 ft | 422 kts | 173° |
| 2026-05-07 16:44 | 34.70526 | -7.81699 | 34727 ft | 428 kts | 161° |
| 2026-05-07 16:45 | 34.67833 | -7.80227 | 34483 ft | 431 kts | 158° |
| 2026-05-07 16:45 | 34.65129 | -7.78653 | 34232 ft | 430 kts | 158° |
| 2026-05-07 16:45 | 34.62422 | -7.77111 | 33980 ft | 429 kts | 158° |
| 2026-05-07 16:45 | 34.59716 | -7.75576 | 33730 ft | 429 kts | 158° |
| 2026-05-07 16:46 | 34.57033 | -7.74053 | 33481 ft | 429 kts | 158° |
| 2026-05-07 16:46 | 34.54330 | -7.72520 | 33231 ft | 430 kts | 158° |
| 2026-05-07 16:46 | 34.51663 | -7.71008 | 32984 ft | 430 kts | 158° |
| 2026-05-07 16:46 | 34.48942 | -7.69468 | 32733 ft | 431 kts | 158° |
| 2026-05-07 16:47 | 34.46254 | -7.67945 | 32485 ft | 431 kts | 158° |
| 2026-05-07 16:47 | 34.43530 | -7.66402 | 32234 ft | 432 kts | 158° |
| 2026-05-07 16:47 | 34.40823 | -7.64872 | 31984 ft | 433 kts | 158° |
| 2026-05-07 16:47 | 34.38083 | -7.63323 | 31732 ft | 433 kts | 158° |
| 2026-05-07 16:48 | 34.35382 | -7.61799 | 31484 ft | 433 kts | 158° |
| 2026-05-07 16:48 | 34.32641 | -7.60255 | 31232 ft | 434 kts | 158° |
| 2026-05-07 16:48 | 34.29907 | -7.58718 | 30978 ft | 433 kts | 158° |
| 2026-05-07 16:48 | 34.27227 | -7.57206 | 30715 ft | 422 kts | 158° |
| 2026-05-07 16:49 | 34.24582 | -7.55707 | 30294 ft | 413 kts | 158° |
| 2026-05-07 16:49 | 34.22042 | -7.54265 | 29803 ft | 407 kts | 158° |
| 2026-05-07 16:49 | 34.19506 | -7.52825 | 29228 ft | 402 kts | 158° |
| 2026-05-07 16:49 | 34.17001 | -7.51399 | 28745 ft | 396 kts | 158° |
| 2026-05-07 16:50 | 34.14521 | -7.49983 | 28238 ft | 391 kts | 158° |
| 2026-05-07 16:50 | 34.12070 | -7.48582 | 27716 ft | 386 kts | 158° |
| 2026-05-07 16:50 | 34.09704 | -7.47230 | 27199 ft | 382 kts | 158° |
| 2026-05-07 16:50 | 34.08509 | -7.46547 | 26935 ft | 380 kts | 158° |
| 2026-05-07 16:51 | 34.06132 | -7.45187 | 26407 ft | 376 kts | 158° |
| 2026-05-07 16:51 | 34.03769 | -7.43832 | 25898 ft | 371 kts | 158° |
| 2026-05-07 16:51 | 34.01476 | -7.42517 | 25402 ft | 367 kts | 158° |
| 2026-05-07 16:51 | 33.99169 | -7.41192 | 24897 ft | 363 kts | 158° |
| 2026-05-07 16:52 | 33.96906 | -7.39946 | 24397 ft | 358 kts | 163° |
| 2026-05-07 16:52 | 33.94558 | -7.39080 | 23898 ft | 351 kts | 168° |
| 2026-05-07 16:52 | 33.92218 | -7.38350 | 23400 ft | 348 kts | 168° |
| 2026-05-07 16:52 | 33.89905 | -7.37608 | 22901 ft | 345 kts | 168° |
| 2026-05-07 16:53 | 33.87581 | -7.36857 | 22396 ft | 342 kts | 168° |
| 2026-05-07 16:53 | 33.85309 | -7.36125 | 21897 ft | 339 kts | 168° |
| 2026-05-07 16:53 | 33.83024 | -7.35387 | 21434 ft | 335 kts | 168° |
| 2026-05-07 16:53 | 33.80790 | -7.34665 | 20982 ft | 331 kts | 168° |
| 2026-05-07 16:54 | 33.78597 | -7.33955 | 20533 ft | 326 kts | 168° |
| 2026-05-07 16:54 | 33.76419 | -7.33250 | 20081 ft | 322 kts | 168° |
| 2026-05-07 16:54 | 33.74262 | -7.32549 | 19628 ft | 319 kts | 168° |
| 2026-05-07 16:54 | 33.72150 | -7.31861 | 19180 ft | 316 kts | 168° |
| 2026-05-07 16:55 | 33.70067 | -7.31182 | 18734 ft | 313 kts | 168° |
| 2026-05-07 16:55 | 33.67973 | -7.30498 | 18282 ft | 310 kts | 168° |
| 2026-05-07 16:55 | 33.65915 | -7.29825 | 17834 ft | 308 kts | 168° |
| 2026-05-07 16:55 | 33.63837 | -7.29144 | 17377 ft | 305 kts | 168° |
| 2026-05-07 16:56 | 33.61807 | -7.28479 | 16888 ft | 305 kts | 168° |
| 2026-05-07 16:56 | 33.59789 | -7.27818 | 16372 ft | 302 kts | 168° |
| 2026-05-07 16:56 | 33.55821 | -7.26512 | 15321 ft | 293 kts | 168° |
| 2026-05-07 16:57 | 33.53860 | -7.25864 | 14791 ft | 289 kts | 168° |
| 2026-05-07 16:57 | 33.51982 | -7.25087 | 14267 ft | 289 kts | 158° |
| 2026-05-07 16:57 | 33.50401 | -7.23611 | 13738 ft | 298 kts | 132° |
| 2026-05-07 16:57 | 33.49602 | -7.21293 | 13211 ft | 310 kts | 101° |
| 2026-05-07 16:58 | 33.49878 | -7.18724 | 12690 ft | 320 kts | 72° |
| 2026-05-07 16:58 | 33.50875 | -7.16377 | 12282 ft | 314 kts | 71° |
| 2026-05-07 16:58 | 33.51352 | -7.13888 | 11874 ft | 302 kts | 96° |
| 2026-05-07 16:58 | 33.50984 | -7.11475 | 11314 ft | 292 kts | 118° |
| 2026-05-07 16:59 | 33.49951 | -7.09443 | 10839 ft | 284 kts | 138° |
| 2026-05-07 16:59 | 33.48428 | -7.08019 | 10387 ft | 275 kts | 159° |
| 2026-05-07 16:59 | 33.46651 | -7.07379 | 9940 ft | 267 kts | 180° |
| 2026-05-07 16:59 | 33.44823 | -7.07454 | 9543 ft | 262 kts | 191° |
| 2026-05-07 17:00 | 33.43094 | -7.08008 | 9135 ft | 256 kts | 209° |
| 2026-05-07 17:00 | 33.41624 | -7.09153 | 8771 ft | 252 kts | 219° |
| 2026-05-07 17:00 | 33.40229 | -7.10384 | 8421 ft | 250 kts | 219° |
| 2026-05-07 17:00 | 33.38810 | -7.11608 | 8071 ft | 249 kts | 218° |
| 2026-05-07 17:01 | 33.37418 | -7.12794 | 7746 ft | 246 kts | 218° |
| 2026-05-07 17:01 | 33.36032 | -7.13965 | 7421 ft | 245 kts | 218° |
| 2026-05-07 17:01 | 33.34640 | -7.15129 | 7093 ft | 243 kts | 218° |
| 2026-05-07 17:01 | 33.33253 | -7.16281 | 6766 ft | 241 kts | 218° |
| 2026-05-07 17:02 | 33.31873 | -7.17419 | 6439 ft | 240 kts | 218° |
| 2026-05-07 17:02 | 33.30510 | -7.18536 | 6116 ft | 239 kts | 218° |
| 2026-05-07 17:02 | 33.29126 | -7.19666 | 5791 ft | 241 kts | 218° |
| 2026-05-07 17:02 | 33.27741 | -7.20798 | 5473 ft | 247 kts | 218° |
| 2026-05-07 17:03 | 33.26301 | -7.21974 | 5146 ft | 251 kts | 218° |
| 2026-05-07 17:03 | 33.24862 | -7.23149 | 4940 ft | 247 kts | 218° |
| 2026-05-07 17:03 | 33.23452 | -7.24297 | 4936 ft | 248 kts | 218° |
| 2026-05-07 17:03 | 33.22008 | -7.25472 | 4941 ft | 252 kts | 218° |
| 2026-05-07 17:04 | 33.20549 | -7.26661 | 4935 ft | 252 kts | 218° |
| 2026-05-07 17:04 | 33.19132 | -7.27868 | 4936 ft | 249 kts | 227° |
| 2026-05-07 17:04 | 33.18097 | -7.29452 | 4940 ft | 245 kts | 240° |
| 2026-05-07 17:04 | 33.16973 | -7.31054 | 4943 ft | 253 kts | 232° |
| 2026-05-07 17:05 | 33.16028 | -7.32773 | 4934 ft | 245 kts | 250° |
| 2026-05-07 17:05 | 33.15418 | -7.34669 | 4941 ft | 246 kts | 253° |
| 2026-05-07 17:05 | 33.14840 | -7.36556 | 4905 ft | 246 kts | 253° |
| 2026-05-07 17:05 | 33.14239 | -7.38501 | 4777 ft | 245 kts | 254° |
| 2026-05-07 17:06 | 33.13668 | -7.40362 | 4616 ft | 237 kts | 253° |
| 2026-05-07 17:06 | 33.13106 | -7.42174 | 4440 ft | 229 kts | 254° |
| 2026-05-07 17:06 | 33.12551 | -7.43952 | 4264 ft | 226 kts | 253° |
| 2026-05-07 17:06 | 33.12004 | -7.45698 | 4092 ft | 226 kts | 253° |
| 2026-05-07 17:07 | 33.11459 | -7.47449 | 3993 ft | 224 kts | 253° |
| 2026-05-07 17:07 | 33.10919 | -7.49257 | 3955 ft | 240 kts | 254° |
| 2026-05-07 17:07 | 33.10858 | -7.51238 | 3935 ft | 244 kts | 289° |
| 2026-05-07 17:07 | 33.11768 | -7.52867 | 3941 ft | 237 kts | 328° |
| 2026-05-07 17:08 | 33.13269 | -7.53551 | 3941 ft | 224 kts | 356° |
| 2026-05-07 17:08 | 33.14763 | -7.53622 | 3931 ft | 208 kts | 2° |
| 2026-05-07 17:08 | 33.16118 | -7.53583 | 3936 ft | 183 kts | 8° |
| 2026-05-07 17:08 | 33.17296 | -7.53456 | 3958 ft | 158 kts | 9° |
| 2026-05-07 17:09 | 33.18401 | -7.53355 | 4007 ft | 167 kts | 4° |
| 2026-05-07 17:09 | 33.19590 | -7.53557 | 3818 ft | 175 kts | 352° |
| 2026-05-07 17:09 | 33.20769 | -7.53848 | 3538 ft | 169 kts | 352° |
| 2026-05-07 17:09 | 33.21909 | -7.54155 | 3374 ft | 167 kts | 348° |
| 2026-05-07 17:10 | 33.23050 | -7.54527 | 3138 ft | 172 kts | 348° |
| 2026-05-07 17:10 | 33.24155 | -7.54901 | 2901 ft | 164 kts | 348° |
| 2026-05-07 17:10 | 33.25261 | -7.55276 | 2730 ft | 169 kts | 347° |
| 2026-05-07 17:10 | 33.26380 | -7.55660 | 2416 ft | 165 kts | 347° |
| 2026-05-07 17:11 | 33.27460 | -7.56031 | 2264 ft | 156 kts | 347° |
| 2026-05-07 17:11 | 33.28455 | -7.56372 | 1989 ft | 144 kts | 347° |
| 2026-05-07 17:11 | 33.29413 | -7.56700 | 1875 ft | 143 kts | 347° |
| 2026-05-07 17:11 | 33.30393 | -7.57034 | 1656 ft | 147 kts | 346° |
| 2026-05-07 17:12 | 33.31339 | -7.57358 | 1437 ft | 142 kts | 346° |
| 2026-05-07 17:12 | 33.32299 | -7.57686 | 1275 ft | 147 kts | 346° |
| 2026-05-07 17:12 | 33.33271 | -7.58022 | 1082 ft | 144 kts | 346° |
| 2026-05-07 17:12 | 33.34226 | -7.58362 | 862 ft | 143 kts | 346° |
| 2026-05-07 17:13 | 33.35174 | -7.58676 | 676 ft | 140 kts | 346° |
| 2026-05-07 17:13 | 33.36022 | -7.58963 | 653 ft | 103 kts | 345° |
| 2026-05-07 17:13 | 33.36516 | -7.59130 | 649 ft | 49 kts | 345° |
| 2026-05-07 17:13 | 33.36791 | -7.59224 | 649 ft | 38 kts | 345° |
| 2026-05-07 17:14 | 33.37053 | -7.59310 | 649 ft | 39 kts | 342° |
| 2026-05-07 17:14 | 33.37315 | -7.59404 | 649 ft | 39 kts | 344° |
| 2026-05-07 17:14 | 33.37569 | -7.59492 | 649 ft | 36 kts | 345° |
| 2026-05-07 17:14 | 33.37714 | -7.59504 | 649 ft | 11 kts | 52° |
| 2026-05-07 17:15 | 33.37741 | -7.59403 | 648 ft | 14 kts | 74° |
| 2026-05-07 17:15 | 33.37759 | -7.59326 | 647 ft | 0 kts | 74° |
| 2026-05-07 17:15 | 33.37764 | -7.59309 | 647 ft | 5 kts | 73° |
| 2026-05-07 17:16 | 33.37780 | -7.59242 | 647 ft | 12 kts | 74° |
| 2026-05-07 17:16 | 33.37816 | -7.59098 | 646 ft | 21 kts | 75° |
| 2026-05-07 17:16 | 33.37855 | -7.58938 | 645 ft | 17 kts | 73° |
| 2026-05-07 17:16 | 33.37870 | -7.58876 | 645 ft | 2 kts | 75° |
| 2026-05-07 17:17 | 33.37872 | -7.58865 | 645 ft | 0 kts | 75° |
| 2026-05-07 17:17 | 33.37876 | -7.58852 | 645 ft | 7 kts | 75° |
| 2026-05-07 17:17 | 33.37905 | -7.58734 | 646 ft | 20 kts | 73° |
| 2026-05-07 17:18 | 33.37860 | -7.58579 | 646 ft | 20 kts | 127° |
| 2026-05-07 17:18 | 33.37762 | -7.58477 | 646 ft | 16 kts | 160° |
| 2026-05-07 17:18 | 33.37700 | -7.58501 | 646 ft | 8 kts | 250° |
| 2026-05-07 17:18 | 33.37685 | -7.58545 | 646 ft | 4 kts | 213° |
| 2026-05-07 17:19 | 33.37652 | -7.58539 | 646 ft | 4 kts | 136° |